• 加入FlightAware (为何要加入?)
  • 登录
  • US Flag CN Flag 
04:06 EDT


 

机场跟踪/资料


-或-


 

飞行员资源e>metar

Receive METAR and TAF reports for US airports via e-mail. Use your smartphone (iPhone, BlackBerry, Droid, etc.) or email-capable cell phone to receive on-demand reports while at the FBO, in the car, or anywhere convenient before departure.

Weather data is provided by the NOAA and is the most up to date available to pilots.

Data is provided in traditional METAR and TAF formats, which is ideal for mobile devices.

Instructions

  • Send a message to wx@flightaware.com
  • In the subject line, list the fully qualified airport code(s) that you want reports for. (i.e., KHOU KLAX)
  • No message body is required
  • From: Steve Q. Pilot <steve_q_pilot@imcingular.com>
    To: wx@flightaware.com
    Date: Thu May 12 14:36:49 2005
    Subject: KHOU KLAX

    (no message body required)

  • Send the message
  • In approximately 30 seconds, you should have a response. You will receive all requests in one e-mail.
  • From: FlightAware WX <wx@flightaware.com>
    To: Steve Q. Pilot <steve_q_pilot@imcingular.com>
    Date: Thu Jun 03 19:36:49 2004
    Subject: KHOU KLAX

    METAR KHOU:
    2005/05/12 17:53
    KHOU 121753Z 17012KT 10SM SCT031 BKN250 28/19 A3005 RMK AO2 SLP182 T02780194 10
    278 20222 51006
    
    TAF KHOU:
    2005/05/12 17:24
    KHOU 121724Z 121818 16013KT P6SM SCT030 BKN250
          TEMPO 1820 BKN030
         FM0100 14007KT P6SM FEW030 BKN250
         FM0600 13005KT 6SM BR BKN012
         FM1200 15007KT P6SM SCT015
         FM1500 16011KT P6SM SCT025
    
    
    METAR KLAX:
    2005/05/12 17:50
    KLAX 121750Z 25009KT 8SM CLR 22/12 A2995 RMK AO2 SLP141 T02170117 10228 20139 5
    1002
    
    TAF KLAX:
    2005/05/12 17:20
    KLAX 121720Z 121818 25008KT P6SM SKC
         FM2100 25012KT P6SM SKC
         FM0200 26008KT P6SM SKC
         FM0800 VRB03KT P6SM SKC